sensor_id;sensor_type;location;lat;lon;timestamp;pressure;altitude;pressure_sealevel;temperature;humidity
35989;BME280;22064;42.672;23.282;2023-05-23T00:00:08;94544.22;;;12.03;100.00
35989;BME280;22064;42.672;23.282;2023-05-23T00:02:39;94549.63;;;11.91;100.00
35989;BME280;22064;42.672;23.282;2023-05-23T00:05:05;94547.66;;;11.76;100.00
35989;BME280;22064;42.672;23.282;2023-05-23T00:07:32;94536.22;;;11.77;100.00
35989;BME280;22064;42.672;23.282;2023-05-23T00:09:58;94533.84;;;11.76;100.00
35989;BME280;22064;42.672;23.282;2023-05-23T00:12:23;94535.66;;;11.75;100.00
35989;BME280;22064;42.672;23.282;2023-05-23T00:14:49;94533.06;;;11.80;100.00
35989;BME280;22064;42.672;23.282;2023-05-23T00:17:18;94531.00;;;11.77;100.00
35989;BME280;22064;42.672;23.282;2023-05-23T00:19:44;94532.03;;;11.76;100.00
35989;BME280;22064;42.672;23.282;2023-05-23T00:22:11;94529.84;;;11.63;100.00
35989;BME280;22064;42.672;23.282;2023-05-23T00:24:37;94537.91;;;11.56;100.00
35989;BME280;22064;42.672;23.282;2023-05-23T00:27:03;94525.13;;;11.60;100.00
35989;BME280;22064;42.672;23.282;2023-05-23T00:29:29;94523.25;;;11.50;100.00
35989;BME280;22064;42.672;23.282;2023-05-23T00:31:55;94522.25;;;11.24;100.00
35989;BME280;22064;42.672;23.282;2023-05-23T00:34:21;94532.78;;;11.40;100.00
35989;BME280;22064;42.672;23.282;2023-05-23T00:36:47;94528.19;;;11.47;100.00
35989;BME280;22064;42.672;23.282;2023-05-23T00:39:15;94533.69;;;11.55;100.00
35989;BME280;22064;42.672;23.282;2023-05-23T00:41:46;94539.22;;;11.59;100.00
35989;BME280;22064;42.672;23.282;2023-05-23T00:44:11;94525.59;;;11.52;100.00
35989;BME280;22064;42.672;23.282;2023-05-23T00:46:38;94527.19;;;11.58;100.00
35989;BME280;22064;42.672;23.282;2023-05-23T00:49:04;94520.69;;;11.61;100.00
35989;BME280;22064;42.672;23.282;2023-05-23T00:51:30;94522.03;;;11.63;100.00
35989;BME280;22064;42.672;23.282;2023-05-23T00:53:57;94521.53;;;11.66;100.00
35989;BME280;22064;42.672;23.282;2023-05-23T00:56:26;94532.34;;;11.48;100.00
35989;BME280;22064;42.672;23.282;2023-05-23T00:58:53;94523.78;;;11.20;100.00
35989;BME280;22064;42.672;23.282;2023-05-23T01:01:19;94520.53;;;11.03;100.00
35989;BME280;22064;42.672;23.282;2023-05-23T01:03:46;94527.78;;;11.01;100.00
35989;BME280;22064;42.672;23.282;2023-05-23T01:06:14;94531.50;;;10.83;100.00
35989;BME280;22064;42.672;23.282;2023-05-23T01:08:42;94534.44;;;10.64;100.00
35989;BME280;22064;42.672;23.282;2023-05-23T01:11:16;94540.25;;;10.50;100.00
35989;BME280;22064;42.672;23.282;2023-05-23T01:13:55;94536.84;;;10.71;100.00
35989;BME280;22064;42.672;23.282;2023-05-23T01:16:41;94543.75;;;10.82;100.00
35989;BME280;22064;42.672;23.282;2023-05-23T01:19:43;94541.78;;;10.95;100.00
35989;BME280;22064;42.672;23.282;2023-05-23T01:22:21;94528.50;;;10.96;100.00
35989;BME280;22064;42.672;23.282;2023-05-23T01:24:54;94539.34;;;11.10;100.00
35989;BME280;22064;42.672;23.282;2023-05-23T01:27:42;94537.50;;;11.10;100.00
35989;BME280;22064;42.672;23.282;2023-05-23T01:30:11;94534.69;;;11.12;100.00
35989;BME280;22064;42.672;23.282;2023-05-23T01:32:38;94538.34;;;10.89;100.00
35989;BME280;22064;42.672;23.282;2023-05-23T01:35:05;94532.06;;;10.85;100.00
35989;BME280;22064;42.672;23.282;2023-05-23T01:37:31;94536.97;;;10.81;100.00
35989;BME280;22064;42.672;23.282;2023-05-23T01:39:57;94524.72;;;10.55;100.00
35989;BME280;22064;42.672;23.282;2023-05-23T01:42:23;94526.94;;;10.46;100.00
35989;BME280;22064;42.672;23.282;2023-05-23T01:44:50;94528.13;;;10.33;100.00
35989;BME280;22064;42.672;23.282;2023-05-23T01:47:17;94534.84;;;10.51;100.00
35989;BME280;22064;42.672;23.282;2023-05-23T01:49:44;94527.31;;;10.33;100.00
35989;BME280;22064;42.672;23.282;2023-05-23T01:52:12;94526.03;;;10.13;100.00
35989;BME280;22064;42.672;23.282;2023-05-23T01:54:40;94516.81;;;10.06;100.00
35989;BME280;22064;42.672;23.282;2023-05-23T01:57:09;94513.72;;;10.09;100.00
35989;BME280;22064;42.672;23.282;2023-05-23T01:59:35;94521.97;;;10.23;100.00
35989;BME280;22064;42.672;23.282;2023-05-23T02:02:03;94523.53;;;10.40;100.00
35989;BME280;22064;42.672;23.282;2023-05-23T02:04:29;94508.25;;;10.49;100.00
35989;BME280;22064;42.672;23.282;2023-05-23T02:06:57;94516.47;;;10.63;100.00
35989;BME280;22064;42.672;23.282;2023-05-23T02:09:23;94519.59;;;10.65;100.00
35989;BME280;22064;42.672;23.282;2023-05-23T02:11:48;94528.53;;;10.69;100.00
35989;BME280;22064;42.672;23.282;2023-05-23T02:14:14;94513.69;;;10.70;100.00
35989;BME280;22064;42.672;23.282;2023-05-23T02:16:41;94510.81;;;10.71;100.00
35989;BME280;22064;42.672;23.282;2023-05-23T02:19:07;94527.84;;;10.79;100.00
35989;BME280;22064;42.672;23.282;2023-05-23T02:21:33;94515.50;;;10.69;100.00
35989;BME280;22064;42.672;23.282;2023-05-23T02:23:59;94527.41;;;10.65;100.00
35989;BME280;22064;42.672;23.282;2023-05-23T02:26:25;94516.69;;;10.56;100.00
35989;BME280;22064;42.672;23.282;2023-05-23T02:28:52;94516.84;;;10.72;100.00
35989;BME280;22064;42.672;23.282;2023-05-23T02:31:18;94518.94;;;10.75;100.00
35989;BME280;22064;42.672;23.282;2023-05-23T02:33:44;94502.47;;;10.69;100.00
35989;BME280;22064;42.672;23.282;2023-05-23T02:36:10;94501.69;;;10.69;100.00
35989;BME280;22064;42.672;23.282;2023-05-23T02:38:36;94507.19;;;10.72;100.00
35989;BME280;22064;42.672;23.282;2023-05-23T02:41:02;94502.84;;;10.78;100.00
35989;BME280;22064;42.672;23.282;2023-05-23T02:43:29;94507.03;;;10.84;100.00
35989;BME280;22064;42.672;23.282;2023-05-23T02:45:55;94493.13;;;10.73;100.00
35989;BME280;22064;42.672;23.282;2023-05-23T02:48:21;94478.19;;;10.63;100.00
35989;BME280;22064;42.672;23.282;2023-05-23T02:50:47;94491.31;;;10.47;100.00
35989;BME280;22064;42.672;23.282;2023-05-23T02:53:13;94503.41;;;10.36;100.00
35989;BME280;22064;42.672;23.282;2023-05-23T02:55:39;94509.22;;;10.43;100.00
35989;BME280;22064;42.672;23.282;2023-05-23T02:58:05;94505.41;;;10.51;100.00
35989;BME280;22064;42.672;23.282;2023-05-23T03:00:31;94507.06;;;10.62;100.00
35989;BME280;22064;42.672;23.282;2023-05-23T03:02:58;94508.47;;;10.70;100.00
35989;BME280;22064;42.672;23.282;2023-05-23T03:05:24;94512.28;;;10.62;100.00
35989;BME280;22064;42.672;23.282;2023-05-23T03:07:49;94513.75;;;10.75;100.00
35989;BME280;22064;42.672;23.282;2023-05-23T03:10:17;94516.03;;;10.71;100.00
35989;BME280;22064;42.672;23.282;2023-05-23T03:12:43;94517.63;;;10.72;100.00
35989;BME280;22064;42.672;23.282;2023-05-23T03:15:09;94515.16;;;10.88;100.00
35989;BME280;22064;42.672;23.282;2023-05-23T03:17:38;94520.25;;;10.77;100.00
35989;BME280;22064;42.672;23.282;2023-05-23T03:20:05;94524.28;;;10.63;100.00
35989;BME280;22064;42.672;23.282;2023-05-23T03:22:35;94525.31;;;10.40;100.00
35989;BME280;22064;42.672;23.282;2023-05-23T03:25:02;94512.47;;;10.28;100.00
35989;BME280;22064;42.672;23.282;2023-05-23T03:27:29;94526.25;;;10.51;100.00
35989;BME280;22064;42.672;23.282;2023-05-23T03:29:55;94522.69;;;10.62;100.00
35989;BME280;22064;42.672;23.282;2023-05-23T03:32:21;94515.50;;;10.69;100.00
35989;BME280;22064;42.672;23.282;2023-05-23T03:34:47;94531.28;;;10.84;100.00
35989;BME280;22064;42.672;23.282;2023-05-23T03:37:13;94526.13;;;10.62;100.00
35989;BME280;22064;42.672;23.282;2023-05-23T03:39:39;94531.25;;;10.57;100.00
35989;BME280;22064;42.672;23.282;2023-05-23T03:42:05;94539.28;;;10.56;100.00
35989;BME280;22064;42.672;23.282;2023-05-23T03:44:31;94549.19;;;10.54;100.00
35989;BME280;22064;42.672;23.282;2023-05-23T03:46:57;94542.50;;;10.63;100.00
35989;BME280;22064;42.672;23.282;2023-05-23T03:49:23;94537.50;;;10.56;100.00
35989;BME280;22064;42.672;23.282;2023-05-23T03:51:49;94539.75;;;10.48;100.00
35989;BME280;22064;42.672;23.282;2023-05-23T03:54:16;94551.09;;;10.63;100.00
35989;BME280;22064;42.672;23.282;2023-05-23T03:56:42;94557.16;;;10.69;100.00
35989;BME280;22064;42.672;23.282;2023-05-23T03:59:08;94562.13;;;10.71;100.00
35989;BME280;22064;42.672;23.282;2023-05-23T04:01:35;94547.94;;;10.34;100.00
35989;BME280;22064;42.672;23.282;2023-05-23T04:04:01;94563.63;;;10.23;100.00
35989;BME280;22064;42.672;23.282;2023-05-23T04:06:31;94554.09;;;10.28;100.00
35989;BME280;22064;42.672;23.282;2023-05-23T04:08:58;94554.31;;;10.27;100.00
35989;BME280;22064;42.672;23.282;2023-05-23T04:11:24;94552.28;;;10.29;100.00
35989;BME280;22064;42.672;23.282;2023-05-23T04:13:50;94552.63;;;10.59;100.00
35989;BME280;22064;42.672;23.282;2023-05-23T04:16:18;94560.72;;;10.85;100.00
35989;BME280;22064;42.672;23.282;2023-05-23T04:18:44;94562.56;;;10.62;100.00
35989;BME280;22064;42.672;23.282;2023-05-23T04:21:12;94562.81;;;10.39;100.00
35989;BME280;22064;42.672;23.282;2023-05-23T04:23:47;94558.44;;;10.67;100.00
35989;BME280;22064;42.672;23.282;2023-05-23T04:26:13;94555.34;;;10.48;100.00
35989;BME280;22064;42.672;23.282;2023-05-23T04:28:46;94535.25;;;10.43;100.00
35989;BME280;22064;42.672;23.282;2023-05-23T04:31:13;94553.13;;;10.34;100.00
35989;BME280;22064;42.672;23.282;2023-05-23T04:33:40;94567.28;;;10.44;100.00
35989;BME280;22064;42.672;23.282;2023-05-23T04:36:06;94549.41;;;10.30;100.00
35989;BME280;22064;42.672;23.282;2023-05-23T04:38:37;94564.34;;;10.62;100.00
35989;BME280;22064;42.672;23.282;2023-05-23T04:41:06;94559.88;;;10.79;100.00
35989;BME280;22064;42.672;23.282;2023-05-23T04:44:03;94565.97;;;10.90;100.00
35989;BME280;22064;42.672;23.282;2023-05-23T04:46:41;94560.38;;;10.76;100.00
35989;BME280;22064;42.672;23.282;2023-05-23T04:49:22;94575.09;;;10.93;100.00
35989;BME280;22064;42.672;23.282;2023-05-23T04:51:48;94577.94;;;11.13;100.00
35989;BME280;22064;42.672;23.282;2023-05-23T04:54:26;94565.19;;;10.90;100.00
35989;BME280;22064;42.672;23.282;2023-05-23T04:56:53;94578.59;;;10.76;100.00
35989;BME280;22064;42.672;23.282;2023-05-23T04:59:20;94578.41;;;10.83;100.00
35989;BME280;22064;42.672;23.282;2023-05-23T05:01:46;94577.34;;;10.84;100.00
35989;BME280;22064;42.672;23.282;2023-05-23T05:04:13;94571.16;;;10.63;100.00
35989;BME280;22064;42.672;23.282;2023-05-23T05:06:39;94567.81;;;10.68;100.00
35989;BME280;22064;42.672;23.282;2023-05-23T05:09:07;94578.66;;;10.81;100.00
35989;BME280;22064;42.672;23.282;2023-05-23T05:11:34;94568.44;;;11.02;100.00
35989;BME280;22064;42.672;23.282;2023-05-23T05:14:01;94581.69;;;11.27;100.00
35989;BME280;22064;42.672;23.282;2023-05-23T05:16:27;94589.75;;;11.53;100.00
35989;BME280;22064;42.672;23.282;2023-05-23T05:18:53;94577.47;;;11.21;100.00
35989;BME280;22064;42.672;23.282;2023-05-23T05:21:20;94584.69;;;11.09;100.00
35989;BME280;22064;42.672;23.282;2023-05-23T05:23:46;94581.13;;;11.20;100.00
35989;BME280;22064;42.672;23.282;2023-05-23T05:26:14;94582.09;;;11.14;100.00
35989;BME280;22064;42.672;23.282;2023-05-23T05:28:40;94586.03;;;11.44;100.00
35989;BME280;22064;42.672;23.282;2023-05-23T05:31:06;94573.50;;;11.46;100.00
35989;BME280;22064;42.672;23.282;2023-05-23T05:33:34;94588.75;;;11.91;100.00
35989;BME280;22064;42.672;23.282;2023-05-23T05:36:12;94589.69;;;12.17;100.00
35989;BME280;22064;42.672;23.282;2023-05-23T05:38:39;94571.28;;;12.34;100.00
35989;BME280;22064;42.672;23.282;2023-05-23T05:41:05;94572.09;;;12.45;100.00
35989;BME280;22064;42.672;23.282;2023-05-23T05:43:35;94582.91;;;12.69;100.00
35989;BME280;22064;42.672;23.282;2023-05-23T05:46:02;94575.44;;;13.03;100.00
35989;BME280;22064;42.672;23.282;2023-05-23T05:48:29;94578.84;;;13.09;100.00
35989;BME280;22064;42.672;23.282;2023-05-23T05:50:59;94580.69;;;13.24;100.00
35989;BME280;22064;42.672;23.282;2023-05-23T05:53:26;94567.66;;;13.44;100.00
35989;BME280;22064;42.672;23.282;2023-05-23T05:55:53;94569.25;;;13.81;100.00
35989;BME280;22064;42.672;23.282;2023-05-23T05:58:19;94573.09;;;14.14;100.00
35989;BME280;22064;42.672;23.282;2023-05-23T06:00:52;94582.72;;;14.44;100.00
35989;BME280;22064;42.672;23.282;2023-05-23T06:03:20;94563.34;;;14.55;100.00
35989;BME280;22064;42.672;23.282;2023-05-23T06:05:55;94562.94;;;14.83;100.00
35989;BME280;22064;42.672;23.282;2023-05-23T06:08:22;94558.06;;;15.10;100.00
35989;BME280;22064;42.672;23.282;2023-05-23T06:10:48;94564.69;;;15.42;100.00
35989;BME280;22064;42.672;23.282;2023-05-23T06:13:14;94559.31;;;15.57;100.00
35989;BME280;22064;42.672;23.282;2023-05-23T06:15:42;94560.13;;;15.58;100.00
35989;BME280;22064;42.672;23.282;2023-05-23T06:18:09;94561.31;;;15.76;100.00
35989;BME280;22064;42.672;23.282;2023-05-23T06:20:36;94567.81;;;15.83;100.00
35989;BME280;22064;42.672;23.282;2023-05-23T06:23:05;94568.91;;;16.06;100.00
35989;BME280;22064;42.672;23.282;2023-05-23T06:25:31;94569.78;;;15.97;100.00
35989;BME280;22064;42.672;23.282;2023-05-23T06:27:57;94563.03;;;15.90;100.00
35989;BME280;22064;42.672;23.282;2023-05-23T06:30:23;94572.16;;;16.22;100.00
35989;BME280;22064;42.672;23.282;2023-05-23T06:32:50;94580.41;;;16.39;100.00
35989;BME280;22064;42.672;23.282;2023-05-23T06:35:17;94586.06;;;16.52;100.00
35989;BME280;22064;42.672;23.282;2023-05-23T06:37:43;94586.16;;;16.66;100.00
35989;BME280;22064;42.672;23.282;2023-05-23T06:40:11;94580.03;;;16.75;100.00
35989;BME280;22064;42.672;23.282;2023-05-23T06:42:39;94574.59;;;17.09;100.00
35989;BME280;22064;42.672;23.282;2023-05-23T06:45:32;94569.31;;;17.09;100.00
35989;BME280;22064;42.672;23.282;2023-05-23T06:47:59;94561.94;;;17.12;100.00
35989;BME280;22064;42.672;23.282;2023-05-23T06:50:25;94560.94;;;16.89;100.00
35989;BME280;22064;42.672;23.282;2023-05-23T06:52:52;94561.50;;;16.85;100.00
35989;BME280;22064;42.672;23.282;2023-05-23T06:55:18;94565.84;;;16.71;100.00
35989;BME280;22064;42.672;23.282;2023-05-23T06:57:46;94567.25;;;16.88;100.00
35989;BME280;22064;42.672;23.282;2023-05-23T07:00:17;94557.28;;;16.84;100.00
35989;BME280;22064;42.672;23.282;2023-05-23T07:02:56;94556.63;;;16.74;100.00
35989;BME280;22064;42.672;23.282;2023-05-23T07:05:27;94559.16;;;16.84;100.00
35989;BME280;22064;42.672;23.282;2023-05-23T07:07:55;94558.22;;;16.94;100.00
35989;BME280;22064;42.672;23.282;2023-05-23T07:10:21;94558.69;;;17.20;100.00
35989;BME280;22064;42.672;23.282;2023-05-23T07:12:49;94552.13;;;17.36;100.00
35989;BME280;22064;42.672;23.282;2023-05-23T07:15:15;94551.47;;;17.44;100.00
35989;BME280;22064;42.672;23.282;2023-05-23T07:17:53;94541.06;;;17.53;100.00
35989;BME280;22064;42.672;23.282;2023-05-23T07:20:19;94526.75;;;17.26;100.00
35989;BME280;22064;42.672;23.282;2023-05-23T07:22:46;94532.25;;;17.44;100.00
35989;BME280;22064;42.672;23.282;2023-05-23T07:25:12;94522.50;;;17.63;100.00
35989;BME280;22064;42.672;23.282;2023-05-23T07:27:39;94528.78;;;17.48;100.00
35989;BME280;22064;42.672;23.282;2023-05-23T07:30:06;94533.03;;;17.63;100.00
35989;BME280;22064;42.672;23.282;2023-05-23T07:32:35;94527.81;;;17.77;100.00
35989;BME280;22064;42.672;23.282;2023-05-23T07:35:02;94529.56;;;17.82;100.00
35989;BME280;22064;42.672;23.282;2023-05-23T07:37:28;94530.88;;;17.98;100.00
35989;BME280;22064;42.672;23.282;2023-05-23T07:39:54;94532.16;;;18.28;100.00
35989;BME280;22064;42.672;23.282;2023-05-23T07:42:21;94537.75;;;18.27;100.00
35989;BME280;22064;42.672;23.282;2023-05-23T07:44:47;94520.97;;;18.22;100.00
35989;BME280;22064;42.672;23.282;2023-05-23T07:47:13;94526.22;;;18.22;100.00
35989;BME280;22064;42.672;23.282;2023-05-23T07:49:39;94525.66;;;18.26;100.00
35989;BME280;22064;42.672;23.282;2023-05-23T07:52:05;94521.03;;;18.17;100.00
35989;BME280;22064;42.672;23.282;2023-05-23T07:54:32;94533.84;;;18.52;100.00
35989;BME280;22064;42.672;23.282;2023-05-23T07:56:59;94514.59;;;18.51;100.00
35989;BME280;22064;42.672;23.282;2023-05-23T07:59:25;94517.16;;;18.42;100.00
35989;BME280;22064;42.672;23.282;2023-05-23T08:01:51;94522.13;;;18.58;100.00
35989;BME280;22064;42.672;23.282;2023-05-23T08:04:19;94515.66;;;18.50;100.00
35989;BME280;22064;42.672;23.282;2023-05-23T08:06:49;94518.78;;;18.80;100.00
35989;BME280;22064;42.672;23.282;2023-05-23T08:09:15;94512.59;;;18.98;100.00
35989;BME280;22064;42.672;23.282;2023-05-23T08:11:48;94513.59;;;18.88;100.00
35989;BME280;22064;42.672;23.282;2023-05-23T08:14:14;94513.59;;;18.88;100.00
35989;BME280;22064;42.672;23.282;2023-05-23T08:16:58;94515.63;;;19.28;100.00
35989;BME280;22064;42.672;23.282;2023-05-23T08:19:26;94513.41;;;19.21;100.00
35989;BME280;22064;42.672;23.282;2023-05-23T08:21:53;94511.94;;;19.29;100.00
35989;BME280;22064;42.672;23.282;2023-05-23T08:24:19;94503.59;;;19.35;100.00
35989;BME280;22064;42.672;23.282;2023-05-23T08:26:46;94517.31;;;19.46;100.00
35989;BME280;22064;42.672;23.282;2023-05-23T08:29:13;94512.88;;;19.55;100.00
35989;BME280;22064;42.672;23.282;2023-05-23T08:31:40;94507.97;;;19.63;100.00
35989;BME280;22064;42.672;23.282;2023-05-23T08:34:07;94507.59;;;19.78;100.00
35989;BME280;22064;42.672;23.282;2023-05-23T08:36:35;94511.38;;;19.86;100.00
35989;BME280;22064;42.672;23.282;2023-05-23T08:39:02;94500.84;;;19.94;100.00
35989;BME280;22064;42.672;23.282;2023-05-23T08:41:31;94502.91;;;19.97;100.00
35989;BME280;22064;42.672;23.282;2023-05-23T08:44:02;94497.59;;;19.97;100.00
35989;BME280;22064;42.672;23.282;2023-05-23T08:46:33;94503.06;;;20.01;100.00
35989;BME280;22064;42.672;23.282;2023-05-23T08:49:04;94499.41;;;20.19;100.00
35989;BME280;22064;42.672;23.282;2023-05-23T08:51:32;94499.84;;;20.13;100.00
35989;BME280;22064;42.672;23.282;2023-05-23T08:54:05;94497.13;;;20.35;100.00
35989;BME280;22064;42.672;23.282;2023-05-23T08:56:35;94486.84;;;20.34;100.00
35989;BME280;22064;42.672;23.282;2023-05-23T08:59:03;94501.25;;;20.59;100.00
35989;BME280;22064;42.672;23.282;2023-05-23T09:01:31;94491.19;;;20.78;100.00
35989;BME280;22064;42.672;23.282;2023-05-23T09:04:00;94495.53;;;20.74;100.00
35989;BME280;22064;42.672;23.282;2023-05-23T09:06:37;94481.38;;;20.79;100.00
35989;BME280;22064;42.672;23.282;2023-05-23T09:09:03;94494.47;;;20.92;100.00
35989;BME280;22064;42.672;23.282;2023-05-23T09:11:30;94493.72;;;21.09;100.00
35989;BME280;22064;42.672;23.282;2023-05-23T09:13:59;94490.75;;;21.45;96.88
35989;BME280;22064;42.672;23.282;2023-05-23T09:16:32;94495.69;;;21.73;88.60
35989;BME280;22064;42.672;23.282;2023-05-23T09:19:11;94484.41;;;21.94;87.02
35989;BME280;22064;42.672;23.282;2023-05-23T09:21:45;94492.63;;;22.09;78.15
35989;BME280;22064;42.672;23.282;2023-05-23T09:24:40;94488.09;;;22.19;90.51
35989;BME280;22064;42.672;23.282;2023-05-23T09:27:08;94478.09;;;22.16;88.64
35989;BME280;22064;42.672;23.282;2023-05-23T09:29:37;94473.72;;;22.20;92.37
35989;BME280;22064;42.672;23.282;2023-05-23T09:32:13;94481.88;;;22.06;70.14
35989;BME280;22064;42.672;23.282;2023-05-23T09:34:59;94478.59;;;22.09;62.21
35989;BME280;22064;42.672;23.282;2023-05-23T09:37:33;94478.28;;;22.02;62.93
35989;BME280;22064;42.672;23.282;2023-05-23T09:39:59;94466.41;;;22.08;67.58
35989;BME280;22064;42.672;23.282;2023-05-23T09:42:33;94477.00;;;22.25;65.98
35989;BME280;22064;42.672;23.282;2023-05-23T09:44:59;94472.66;;;22.12;62.49
35989;BME280;22064;42.672;23.282;2023-05-23T09:47:25;94474.06;;;22.09;64.29
35989;BME280;22064;42.672;23.282;2023-05-23T09:49:51;94472.81;;;22.07;67.40
35989;BME280;22064;42.672;23.282;2023-05-23T09:52:19;94465.06;;;22.40;61.31
35989;BME280;22064;42.672;23.282;2023-05-23T09:54:45;94459.13;;;22.43;56.45
35989;BME280;22064;42.672;23.282;2023-05-23T09:57:13;94446.38;;;22.57;53.43
35989;BME280;22064;42.672;23.282;2023-05-23T09:59:41;94458.91;;;22.99;52.73
35989;BME280;22064;42.672;23.282;2023-05-23T10:02:10;94462.16;;;23.04;51.86
35989;BME280;22064;42.672;23.282;2023-05-23T10:04:38;94453.28;;;23.00;51.65
35989;BME280;22064;42.672;23.282;2023-05-23T10:09:39;94444.22;;;23.22;48.44
35989;BME280;22064;42.672;23.282;2023-05-23T10:14:44;94448.91;;;23.38;48.36
35989;BME280;22064;42.672;23.282;2023-05-23T10:17:25;94436.44;;;23.17;46.89
35989;BME280;22064;42.672;23.282;2023-05-23T10:20:00;94447.72;;;23.47;46.85
35989;BME280;22064;42.672;23.282;2023-05-23T10:22:36;94449.31;;;23.61;46.13
35989;BME280;22064;42.672;23.282;2023-05-23T10:25:04;94432.97;;;23.38;47.06
35989;BME280;22064;42.672;23.282;2023-05-23T10:27:30;94445.47;;;23.37;47.72
35989;BME280;22064;42.672;23.282;2023-05-23T10:29:58;94445.19;;;23.51;45.22
35989;BME280;22064;42.672;23.282;2023-05-23T10:32:26;94446.09;;;23.67;44.83
35989;BME280;22064;42.672;23.282;2023-05-23T10:34:59;94444.56;;;24.12;44.26
35989;BME280;22064;42.672;23.282;2023-05-23T10:40:12;94440.44;;;24.51;41.49
35989;BME280;22064;42.672;23.282;2023-05-23T10:45:21;94437.78;;;24.63;42.36
35989;BME280;22064;42.672;23.282;2023-05-23T10:47:50;94437.47;;;24.53;41.16
35989;BME280;22064;42.672;23.282;2023-05-23T10:50:31;94430.22;;;24.41;41.55
35989;BME280;22064;42.672;23.282;2023-05-23T10:52:59;94437.03;;;24.91;41.22
35989;BME280;22064;42.672;23.282;2023-05-23T10:55:31;94427.47;;;24.62;40.41
35989;BME280;22064;42.672;23.282;2023-05-23T11:00:36;94422.59;;;24.39;40.92
35989;BME280;22064;42.672;23.282;2023-05-23T11:03:04;94414.84;;;24.34;41.68
35989;BME280;22064;42.672;23.282;2023-05-23T11:05:33;94417.56;;;24.75;40.92
35989;BME280;22064;42.672;23.282;2023-05-23T11:08:13;94413.22;;;24.82;40.52
35989;BME280;22064;42.672;23.282;2023-05-23T11:10:50;94412.63;;;24.89;39.40
35989;BME280;22064;42.672;23.282;2023-05-23T11:13:17;94419.41;;;24.99;39.87
35989;BME280;22064;42.672;23.282;2023-05-23T11:15:43;94425.22;;;25.17;39.33
35989;BME280;22064;42.672;23.282;2023-05-23T11:18:22;94414.47;;;24.73;39.95
35989;BME280;22064;42.672;23.282;2023-05-23T11:20:53;94420.81;;;24.07;40.01
35989;BME280;22064;42.672;23.282;2023-05-23T11:23:20;94412.19;;;24.22;40.00
35989;BME280;22064;42.672;23.282;2023-05-23T11:25:51;94411.41;;;24.34;39.82
35989;BME280;22064;42.672;23.282;2023-05-23T11:28:18;94411.63;;;24.53;38.88
35989;BME280;22064;42.672;23.282;2023-05-23T11:30:48;94392.03;;;24.46;38.84
35989;BME280;22064;42.672;23.282;2023-05-23T11:33:15;94403.28;;;24.95;38.55
35989;BME280;22064;42.672;23.282;2023-05-23T11:35:46;94392.47;;;24.76;37.95
35989;BME280;22064;42.672;23.282;2023-05-23T11:38:13;94400.84;;;25.02;38.24
35989;BME280;22064;42.672;23.282;2023-05-23T11:40:42;94394.41;;;25.31;38.96
35989;BME280;22064;42.672;23.282;2023-05-23T11:43:12;94399.00;;;24.91;38.18
35989;BME280;22064;42.672;23.282;2023-05-23T11:45:38;94391.31;;;24.89;38.48
35989;BME280;22064;42.672;23.282;2023-05-23T11:48:12;94387.94;;;24.76;38.38
35989;BME280;22064;42.672;23.282;2023-05-23T11:50:48;94389.91;;;24.79;38.86
35989;BME280;22064;42.672;23.282;2023-05-23T11:53:14;94389.78;;;24.88;39.21
35989;BME280;22064;42.672;23.282;2023-05-23T11:55:51;94392.50;;;25.32;37.88
35989;BME280;22064;42.672;23.282;2023-05-23T11:58:25;94387.34;;;25.83;38.29
35989;BME280;22064;42.672;23.282;2023-05-23T12:00:51;94388.81;;;25.96;37.59
35989;BME280;22064;42.672;23.282;2023-05-23T12:03:17;94384.78;;;25.87;37.97
35989;BME280;22064;42.672;23.282;2023-05-23T12:05:43;94377.28;;;26.08;37.02
35989;BME280;22064;42.672;23.282;2023-05-23T12:08:11;94372.13;;;26.51;36.78
35989;BME280;22064;42.672;23.282;2023-05-23T12:10:50;94383.31;;;26.56;36.24
35989;BME280;22064;42.672;23.282;2023-05-23T12:13:16;94373.84;;;26.43;36.51
35989;BME280;22064;42.672;23.282;2023-05-23T12:15:42;94375.41;;;26.28;36.60
35989;BME280;22064;42.672;23.282;2023-05-23T12:18:08;94372.94;;;25.72;37.56
35989;BME280;22064;42.672;23.282;2023-05-23T12:20:34;94369.19;;;26.05;37.67
35989;BME280;22064;42.672;23.282;2023-05-23T12:23:04;94371.00;;;26.52;36.09
35989;BME280;22064;42.672;23.282;2023-05-23T12:25:39;94351.97;;;26.72;35.05
35989;BME280;22064;42.672;23.282;2023-05-23T12:28:08;94345.97;;;27.37;34.15
35989;BME280;22064;42.672;23.282;2023-05-23T12:30:42;94339.41;;;27.77;34.19
35989;BME280;22064;42.672;23.282;2023-05-23T12:33:08;94349.44;;;27.61;34.74
35989;BME280;22064;42.672;23.282;2023-05-23T12:35:35;94344.06;;;27.61;34.23
35989;BME280;22064;42.672;23.282;2023-05-23T12:38:01;94336.63;;;27.28;34.68
35989;BME280;22064;42.672;23.282;2023-05-23T12:40:27;94345.34;;;27.25;34.49
35989;BME280;22064;42.672;23.282;2023-05-23T12:42:55;94331.47;;;27.38;34.23
35989;BME280;22064;42.672;23.282;2023-05-23T12:45:31;94346.97;;;27.52;33.59
35989;BME280;22064;42.672;23.282;2023-05-23T12:47:57;94342.00;;;27.74;33.71
35989;BME280;22064;42.672;23.282;2023-05-23T12:50:23;94333.13;;;27.93;33.69
35989;BME280;22064;42.672;23.282;2023-05-23T12:52:48;94331.69;;;28.52;32.70
35989;BME280;22064;42.672;23.282;2023-05-23T12:55:14;94329.72;;;28.22;32.67
35989;BME280;22064;42.672;23.282;2023-05-23T12:57:40;94327.63;;;28.35;32.04
35989;BME280;22064;42.672;23.282;2023-05-23T13:00:07;94328.22;;;28.25;32.05
35989;BME280;22064;42.672;23.282;2023-05-23T13:02:33;94327.88;;;28.00;32.65